Terminal Aerodrome Forecast
Issued by NWS North Platte, NE

Home | Current Version | Previous Version | Text Only | Print | Product List | Glossary On
Versions: 1 2 3 4 5 6 7 8 9 10 11 12 13 14
000
FTUS43 KLBF 270500
TAFLBF
TAF
KLBF 270521Z 2706/2806 32008KT P6SM OVC050
      TEMPO 2706/2709 3SM -SN BR OVC025
     FM271400 30006KT P6SM SCT250
     FM271800 27008KT P6SM SKC
     FM280000 VRB06KT P6SM SKC=

USA.gov is the U.S. government's official web portal to all federal, state and local government web resources and services.